Time;durP1;ratioP1;P1;durP2;ratioP2;P2;SDS_P1;SDS_P2;PMS_P1;PMS_P2;Temp;Humidity;BMP_temperature;BMP_pressure;BME280_temperature;BME280_humidity;BME280_pressure;Samples;Min_cycle;Max_cycle;Signal;HPM_P1;HPM_P2
2021/04/10 00:01:56;;;;;;;;;;;;;;;2.58;53.54;100571.63;1738388;80;21902;-62
2021/04/10 00:04:25;;;;;;;18.82;12.30;;;;;;;2.54;53.90;100569.44;1753661;79;20547;-69
2021/04/10 00:06:52;;;;;;;20.85;13.60;;;;;;;2.52;53.59;100567.27;1746556;79;21188;-67
2021/04/10 00:09:21;;;;;;;21.85;15.25;;;;;;;2.47;53.71;100565.11;1722756;80;21603;-65
2021/04/10 00:11:50;;;;;;;19.90;15.93;;;;;;;2.40;53.91;100562.03;1743652;79;21666;-66
2021/04/10 00:14:18;;;;;;;23.55;15.00;;;;;;;2.34;54.15;100564.17;1738059;79;22065;-68
2021/04/10 00:16:46;;;;;;;18.62;14.23;;;;;;;2.33;54.16;100566.31;1743518;80;21526;-67
2021/04/10 00:19:14;;;;;;;17.27;12.82;;;;;;;2.30;54.30;100568.47;1740341;80;21654;-68
2021/04/10 00:21:42;;;;;;;;;;;;;;;2.26;54.48;100567.13;1744535;80;21636;-67
2021/04/10 00:24:11;;;;;;;16.55;10.72;;;;;;;2.22;54.68;100566.68;1751168;80;20266;-67
2021/04/10 00:26:39;;;;;;;14.55;11.80;;;;;;;2.20;54.46;100564.07;1681979;82;21845;-68
2021/04/10 00:29:07;;;;;;;16.45;11.38;;;;;;;2.25;54.39;100567.56;1743711;80;21638;-66
2021/04/10 00:31:36;;;;;;;16.17;11.33;;;;;;;2.22;54.46;100564.95;1743549;79;21552;-68
2021/04/10 00:34:04;;;;;;;16.35;12.18;;;;;;;2.21;54.61;100559.33;1685066;83;21668;-68
2021/04/10 00:36:34;;;;;;;16.55;12.35;;;;;;;2.22;54.58;100567.98;1740502;79;21565;-67
2021/04/10 00:39:02;;;;;;;17.17;12.40;;;;;;;2.23;54.50;100572.32;1688111;82;22109;-68
2021/04/10 00:41:30;;;;;;;18.37;12.70;;;;;;;2.21;54.45;100568.41;1748671;79;21706;-68
2021/04/10 00:43:59;;;;;;;17.70;11.75;;;;;;;2.19;54.50;100566.68;1747342;80;21691;-67
2021/04/10 00:46:27;;;;;;;;;;;;;;;2.15;54.66;100569.69;1750147;79;21570;-68
2021/04/10 00:48:54;;;;;;;;;;;;;;;2.09;54.99;100569.63;1740520;80;20271;-68
2021/04/10 00:51:22;;;;;;;;;;;;;;;2.02;55.30;100570.46;1745404;80;21867;-67
2021/04/10 00:53:49;;;;;;;;;;;;;;;1.98;55.38;100566.98;1749594;79;20872;-69
2021/04/10 00:56:18;;;;;;;17.35;11.48;;;;;;;1.97;55.48;100566.96;1722744;81;20302;-68
2021/04/10 00:58:46;;;;;;;19.73;12.68;;;;;;;1.81;54.99;100540.03;1747524;80;21627;-67
2021/04/10 01:01:15;;;;;;;20.43;12.78;;;;;;;1.98;55.11;100571.27;1745448;80;21159;-67
2021/04/10 01:03:42;;;;;;;16.82;12.37;;;;;;;1.95;55.21;100571.69;1746168;80;22071;-66
2021/04/10 01:06:11;;;;;;;17.02;12.00;;;;;;;1.94;55.38;100574.27;1745772;80;21612;-66
2021/04/10 01:08:39;;;;;;;15.55;12.33;;;;;;;1.94;55.54;100574.27;1740285;79;21716;-65
2021/04/10 01:11:31;;;;;;;17.02;12.47;;;;;;;1.93;55.54;100570.81;1745343;80;21919;-69
2021/04/10 01:14:35;;;;;;;16.23;12.18;;;;;;;1.92;55.55;100574.69;1738242;80;21657;-69
2021/04/10 01:17:11;;;;;;;16.80;11.48;;;;;;;1.93;55.52;100576.00;1750715;80;22157;-73
2021/04/10 01:20:26;;;;;;;17.92;11.93;;;;;;;1.78;55.50;100553.85;1751935;80;21194;-66
2021/04/10 01:23:15;;;;;;;16.15;11.03;;;;;;;1.87;55.65;100575.97;1753253;80;21559;-68
2021/04/10 01:26:03;;;;;;;16.12;11.33;;;;;;;1.82;55.70;100576.35;1740513;79;21667;-65
2021/04/10 01:28:46;;;;;;;14.18;11.10;;;;;;;1.84;55.69;100573.78;1744392;80;21671;-64
2021/04/10 01:31:16;;;;;;;15.05;11.95;;;;;;;1.82;55.85;100582.84;1747846;80;22098;-64
2021/04/10 01:33:50;;;;;;;14.90;11.75;;;;;;;1.76;55.96;100580.20;1747546;79;21264;-64
2021/04/10 01:36:26;;;;;;;17.25;12.80;;;;;;;1.77;56.04;100579.77;1726656;79;21569;-64
2021/04/10 01:38:54;;;;;;;17.30;12.53;;;;;;;1.73;56.14;100578.47;1743678;79;21620;-62
2021/04/10 01:41:22;;;;;;;17.82;12.20;;;;;;;1.67;56.29;100582.28;1726846;79;21592;-67
2021/04/10 01:43:51;;;;;;;19.42;13.70;;;;;;;1.64;56.44;100580.08;1746447;80;22104;-66
2021/04/10 01:46:19;;;;;;;16.52;12.20;;;;;;;1.63;56.45;100575.77;1727866;80;21667;-65
2021/04/10 01:48:47;;;;;;;19.40;12.73;;;;;;;1.61;56.60;100571.00;1749515;80;21556;-67
2021/04/10 01:51:15;;;;;;;17.00;12.45;;;;;;;1.59;56.63;100577.47;1754150;80;21218;-66
2021/04/10 01:53:43;;;;;;;14.90;11.93;;;;;;;1.61;56.59;100576.19;1723358;81;21735;-66
2021/04/10 01:56:11;;;;;;;16.40;12.13;;;;;;;1.64;56.51;100578.38;1748757;80;21980;-65
2021/04/10 01:58:41;;;;;;;13.28;11.08;;;;;;;1.66;56.53;100576.67;1745450;80;21600;-64
2021/04/10 02:01:16;;;;;;;15.23;11.70;;;;;;;1.67;56.40;100580.98;1720335;81;21698;-64
2021/04/10 02:03:45;;;;;;;13.60;10.82;;;;;;;1.68;56.38;100575.39;1743197;79;21198;-64
2021/04/10 02:06:14;;;;;;;17.62;11.73;;;;;;;1.64;56.38;100582.67;1749240;79;21576;-65
2021/04/10 02:08:54;;;;;;;15.55;11.25;;;;;;;1.66;56.43;100574.08;1859724;76;23323;-66
2021/04/10 02:11:27;;;;;;;16.23;12.07;;;;;;;1.65;56.35;100572.77;1767443;79;21560;-64
2021/04/10 02:14:05;;;;;;;13.95;11.00;;;;;;;1.73;56.33;100579.76;1814802;76;23267;-63
2021/04/10 02:16:35;;;;;;;18.02;11.63;;;;;;;1.66;56.21;100577.97;1778890;77;21650;-65
2021/04/10 02:19:05;;;;;;;15.00;12.05;;;;;;;1.66;56.15;100574.52;1754898;79;22054;-63
2021/04/10 02:21:33;;;;;;;16.67;11.57;;;;;;;1.63;56.24;100578.36;1788234;77;21500;-66
2021/04/10 02:24:02;;;;;;;16.02;12.07;;;;;;;1.58;56.41;100580.90;1778853;77;21551;-66
2021/04/10 02:26:31;;;;;;;18.85;12.33;;;;;;;1.53;56.55;100578.28;1734644;80;21658;-66
2021/04/10 02:29:00;;;;;;;17.57;12.55;;;;;;;1.54;56.49;100576.14;1756572;79;21587;-65
2021/04/10 02:31:36;;;;;;;17.48;11.45;;;;;;;1.56;56.49;100577.43;1730636;81;22043;-65
2021/04/10 02:34:10;;;;;;;17.07;12.35;;;;;;;1.54;56.53;100578.73;1784672;79;21599;-64
2021/04/10 02:36:38;;;;;;;16.12;11.05;;;;;;;1.54;56.51;100577.84;1789568;77;21618;-63
2021/04/10 02:39:08;;;;;;;16.65;11.88;;;;;;;1.52;56.65;100579.13;1778343;77;21588;-64
2021/04/10 02:41:35;;;;;;;16.80;12.82;;;;;;;1.51;56.68;100584.32;1771551;77;21582;-65
2021/04/10 02:44:10;;;;;;;18.55;11.97;;;;;;;1.47;56.79;100581.23;1782125;79;22097;-67
2021/04/10 02:46:48;;;;;;;19.00;12.75;;;;;;;1.44;56.75;100579.48;1782764;77;21682;-66
2021/04/10 02:49:21;;;;;;;18.87;12.07;;;;;;;1.42;56.93;100589.41;1752899;79;21638;-67
2021/04/10 02:51:55;;;;;;;18.00;12.55;;;;;;;1.39;56.96;100581.16;1801173;77;21558;-65
2021/04/10 02:54:26;;;;;;;17.62;13.08;;;;;;;1.43;56.92;100576.88;1785539;77;21622;-67
2021/04/10 02:57:06;;;;;;;18.70;12.98;;;;;;;1.45;56.84;100578.66;1798240;77;22015;-66
2021/04/10 02:59:34;;;;;;;19.85;12.60;;;;;;;1.49;56.81;100584.30;1786974;77;21651;-67
2021/04/10 03:02:03;;;;;;;16.50;12.35;;;;;;;1.49;56.81;100584.30;1786424;77;21525;-66
2021/04/10 03:04:31;;;;;;;15.90;11.70;;;;;;;1.51;56.80;100582.59;1778451;77;21596;-66
2021/04/10 03:07:02;;;;;;;17.48;12.37;;;;;;;1.48;56.83;100587.73;1793649;77;21215;-66
2021/04/10 03:09:29;;;;;;;16.93;12.13;;;;;;;1.45;56.96;100590.31;1762005;79;22106;-66
2021/04/10 03:12:00;;;;;;;15.60;11.43;;;;;;;1.40;57.05;100583.34;1776152;77;21665;-67
2021/04/10 03:14:29;;;;;;;18.17;11.78;;;;;;;1.41;57.14;100590.25;1767570;77;21552;-65
2021/04/10 03:16:59;;;;;;;16.50;11.80;;;;;;;1.38;57.29;100585.92;1786389;78;21649;-67
2021/04/10 03:19:28;;;;;;;15.80;10.90;;;;;;;1.36;57.34;100594.97;1787036;78;21663;-67
2021/04/10 03:21:57;;;;;;;16.25;11.88;;;;;;;1.38;57.28;100601.91;1767334;78;22053;-65
2021/04/10 03:24:26;;;;;;;16.73;12.05;;;;;;;1.42;57.16;100598.48;1710474;80;21686;-65
2021/04/10 03:26:54;;;;;;;;;;;;;;;1.44;57.09;100600.66;1742959;80;21586;-66
2021/04/10 03:29:23;;;;;;;14.65;11.05;;;;;;;1.42;57.33;100601.08;1740610;79;20319;-67
2021/04/10 03:31:52;;;;;;;15.80;12.43;;;;;;;1.38;57.14;100600.61;1731065;79;22408;-65
2021/04/10 03:34:20;;;;;;;15.25;11.38;;;;;;;1.38;57.27;100604.50;1694789;80;21591;-67
2021/04/10 03:36:48;;;;;;;15.08;11.35;;;;;;;1.37;57.28;100599.72;1744050;79;21643;-66
2021/04/10 03:39:16;;;;;;;14.68;10.85;;;;;;;1.41;57.31;100599.32;1751487;79;21696;-64
2021/04/10 03:41:46;;;;;;;15.95;11.08;;;;;;;1.39;57.34;100599.30;1740272;79;21694;-66
2021/04/10 03:44:14;;;;;;;16.55;11.55;;;;;;;1.41;57.51;100601.91;1739149;79;21618;-66
2021/04/10 03:46:43;;;;;;;14.73;11.05;;;;;;;1.43;57.45;100600.20;1725501;80;22203;-61
2021/04/10 03:49:11;;;;;;;17.85;11.70;;;;;;;1.49;57.36;100602.44;1731625;80;21173;-60
2021/04/10 03:51:39;;;;;;;15.63;11.20;;;;;;;1.52;57.41;100605.05;1745323;79;21658;-59
2021/04/10 03:54:07;;;;;;;14.55;11.05;;;;;;;1.51;57.57;100606.35;1752164;79;21977;-61
2021/04/10 03:56:36;;;;;;;16.30;12.15;;;;;;;1.50;57.57;100606.75;1741159;79;21118;-62
2021/04/10 03:59:24;;;;;;;16.37;12.47;;;;;;;1.54;57.94;100604.66;1819477;77;22754;-64
2021/04/10 04:01:53;;;;;;;19.07;12.88;;;;;;;1.50;57.88;100604.16;1779410;78;21524;-64
2021/04/10 04:04:23;;;;;;;19.30;12.80;;;;;;;1.57;57.84;100604.24;1796332;78;21952;-63
2021/04/10 04:06:51;;;;;;;22.60;15.45;;;;;;;1.60;57.84;100606.44;1787598;78;21677;-66
2021/04/10 04:09:19;;;;;;;18.40;14.50;;;;;;;1.60;58.03;100609.44;1777201;79;21623;-64
2021/04/10 04:11:47;;;;;;;18.67;11.88;;;;;;;1.62;57.97;100607.72;1788710;78;21602;-62
2021/04/10 04:14:15;;;;;;;23.42;13.10;;;;;;;1.65;58.16;100611.22;1783576;78;21556;-63
2021/04/10 04:16:43;;;;;;;15.25;11.40;;;;;;;1.75;58.08;100614.75;1789009;78;22111;-63
2021/04/10 04:19:10;;;;;;;16.05;10.70;;;;;;;1.85;58.01;100614.43;1783026;78;21564;-62
2021/04/10 04:21:38;;;;;;;12.75;9.83;;;;;;;1.94;57.90;100615.37;1784394;79;21552;-63
2021/04/10 04:24:07;;;;;;;17.57;12.50;;;;;;;2.02;57.79;100614.56;1788496;79;21166;-63
2021/04/10 04:26:35;;;;;;;20.55;15.93;;;;;;;2.08;57.60;100618.49;1788662;78;21567;-64
2021/04/10 04:29:03;;;;;;;18.27;12.78;;;;;;;2.10;57.28;100620.66;1794082;78;22042;-66
2021/04/10 04:31:31;;;;;;;15.15;11.70;;;;;;;2.15;57.20;100622.88;1778153;78;21667;-63
2021/04/10 04:34:00;;;;;;;15.70;11.08;;;;;;;2.21;57.18;100619.02;1782502;79;21646;-64
2021/04/10 04:36:27;;;;;;;14.50;11.40;;;;;;;2.22;57.03;100618.14;1787550;78;21662;-64
2021/04/10 04:38:55;;;;;;;14.38;11.30;;;;;;;2.24;57.14;100619.45;1789319;77;21130;-63
2021/04/10 04:41:23;;;;;;;;;;;;;;;2.27;57.15;100619.48;1794342;78;22085;-65
2021/04/10 04:43:50;;;;;;;;;;;;;;;2.30;57.13;100620.37;1790869;78;20495;-63
2021/04/10 04:46:18;;;;;;;14.90;10.45;;;;;;;2.36;57.24;100614.36;1787080;78;20605;-65
2021/04/10 04:48:46;;;;;;;17.07;11.20;;;;;;;2.42;56.91;100623.47;1778302;79;21134;-64
2021/04/10 04:51:14;;;;;;;;;;;;;;;2.52;56.85;100623.09;1794428;78;21626;-64
2021/04/10 04:53:41;;;;;;;;;;;;;;;2.61;57.07;100625.74;1767390;79;22054;-65
2021/04/10 04:56:09;;;;;;;13.80;10.60;;;;;;;2.69;56.66;100618.88;1789023;77;20478;-64
2021/04/10 04:58:37;;;;;;;;;;;;;;;2.75;56.64;100614.14;1792390;78;21605;-65
2021/04/10 05:01:04;;;;;;;13.65;9.73;;;;;;;2.82;57.40;100617.18;1776627;79;20532;-66
2021/04/10 05:03:32;;;;;;;14.75;10.80;;;;;;;2.89;56.85;100617.66;1715206;81;21667;-64
2021/04/10 05:06:00;;;;;;;16.00;10.93;;;;;;;3.02;56.44;100617.71;1699145;81;21493;-64
2021/04/10 05:08:28;;;;;;;17.23;11.95;;;;;;;3.12;56.40;100616.87;1742166;80;21642;-63
2021/04/10 05:10:55;;;;;;;;;;;;;;;3.20;56.09;100616.89;1724760;81;21672;-66
2021/04/10 05:13:23;;;;;;;14.47;10.50;;;;;;;3.27;56.14;100613.45;1714089;82;20323;-63
2021/04/10 05:15:51;;;;;;;15.43;11.22;;;;;;;3.36;56.05;100616.52;1739736;80;21151;-67
2021/04/10 05:18:19;;;;;;;16.60;11.83;;;;;;;3.42;56.07;100612.17;1738517;80;21645;-64
2021/04/10 05:20:48;;;;;;;17.35;12.58;;;;;;;3.51;55.92;100610.89;1756558;79;21605;-65
2021/04/10 05:23:22;;;;;;;;;;;;;;;3.60;55.76;100613.06;1735718;80;21737;-63
2021/04/10 05:25:49;;;;;;;17.30;10.80;;;;;;;3.69;55.44;100615.27;1733719;80;20607;-64
2021/04/10 05:28:19;;;;;;;15.23;11.50;;;;;;;3.78;54.94;100609.18;1774606;78;21604;-64
2021/04/10 05:30:47;;;;;;;16.55;12.15;;;;;;;3.86;55.00;100610.07;1771886;78;22010;-67
2021/04/10 05:33:15;;;;;;;15.78;12.50;;;;;;;3.97;54.95;100605.28;1781523;78;21663;-64
2021/04/10 05:35:43;;;;;;;19.07;12.70;;;;;;;4.08;54.69;100608.75;1776701;78;21649;-63
2021/04/10 05:38:11;;;;;;;15.48;10.70;;;;;;;4.18;54.69;100606.59;1770297;78;21222;-60
2021/04/10 05:40:39;;;;;;;15.65;11.85;;;;;;;4.30;54.44;100609.59;1774721;79;21643;-61
2021/04/10 05:43:07;;;;;;;18.15;11.22;;;;;;;4.43;54.06;100614.35;1776188;79;21624;-60
2021/04/10 05:45:35;;;;;;;16.77;10.95;;;;;;;4.52;53.52;100609.13;1775488;78;21652;-62
2021/04/10 05:48:04;;;;;;;15.35;10.90;;;;;;;4.60;53.61;100606.50;1776821;78;21652;-63
2021/04/10 05:50:31;;;;;;;18.25;10.70;;;;;;;4.71;53.37;100616.45;1773502;78;21608;-61
2021/04/10 05:52:59;;;;;;;14.20;10.63;;;;;;;4.80;52.93;100612.92;1782003;78;21644;-58
2021/04/10 05:55:27;;;;;;;15.05;10.48;;;;;;;4.93;52.51;100617.66;1784812;78;22177;-60
2021/04/10 05:57:54;;;;;;;;;;;;;;;5.00;52.20;100615.02;1780551;78;21656;-61
2021/04/10 06:00:23;;;;;;;16.23;10.00;;;;;;;5.11;52.02;100610.20;1778983;79;20564;-64
2021/04/10 06:02:52;;;;;;;12.68;9.38;;;;;;;5.19;51.79;100614.93;1778465;77;21191;-65
2021/04/10 06:05:21;;;;;;;14.43;9.80;;;;;;;5.28;51.46;100616.19;1782279;79;21655;-61
2021/04/10 06:07:49;;;;;;;15.80;10.50;;;;;;;5.41;51.36;100615.23;1783865;78;21950;-61
2021/04/10 06:10:18;;;;;;;13.10;9.40;;;;;;;5.52;51.25;100613.87;1790871;78;21641;-64
2021/04/10 06:12:47;;;;;;;16.75;10.50;;;;;;;5.65;51.23;100617.24;1791265;78;21611;-61
2021/04/10 06:15:17;;;;;;;20.60;11.73;;;;;;;5.80;51.06;100617.16;1791332;78;21671;-62
2021/04/10 06:17:46;;;;;;;15.83;9.68;;;;;;;5.93;51.20;100613.98;1790338;79;21624;-60
2021/04/10 06:20:16;;;;;;;12.55;9.33;;;;;;;6.10;50.48;100618.23;1786853;78;22081;-60
2021/04/10 06:22:44;;;;;;;13.03;9.30;;;;;;;6.22;50.24;100613.77;1782405;79;21638;-61
2021/04/10 06:25:12;;;;;;;11.65;8.83;;;;;;;6.33;49.67;100614.98;1786742;78;21589;-61
2021/04/10 06:27:40;;;;;;;11.95;8.65;;;;;;;6.41;49.48;100613.59;1788727;77;21706;-63
2021/04/10 06:30:09;;;;;;;10.95;8.35;;;;;;;6.50;49.41;100609.59;1750561;80;21576;-60
2021/04/10 06:32:37;;;;;;;14.33;10.00;;;;;;;6.63;49.38;100612.48;1747460;79;21964;-61
2021/04/10 06:35:07;;;;;;;10.88;9.08;;;;;;;6.77;48.63;100615.38;1785044;78;21615;-61
2021/04/10 06:37:35;;;;;;;13.53;9.18;;;;;;;6.88;48.24;100620.04;1785731;78;21186;-59
2021/04/10 06:40:07;;;;;;;12.05;8.60;;;;;;;6.98;48.05;100624.26;1791915;78;21621;-64
2021/04/10 06:42:34;;;;;;;9.80;8.28;;;;;;;7.11;47.56;100618.89;1787982;79;21630;-61
2021/04/10 06:45:05;;;;;;;11.12;7.92;;;;;;;7.21;47.31;100612.63;1780918;78;21936;-61
2021/04/10 06:47:34;;;;;;;11.12;7.90;;;;;;;7.28;46.95;100615.59;1777725;78;21516;-61
2021/04/10 06:50:05;;;;;;;9.55;7.60;;;;;;;7.33;46.21;100610.31;1788049;79;21135;-60
2021/04/10 06:52:40;;;;;;;10.20;7.55;;;;;;;7.41;46.30;100612.38;1793873;77;21571;-60
2021/04/10 06:55:16;;;;;;;10.60;8.03;;;;;;;7.47;46.23;100617.50;1785211;79;21607;-59
2021/04/10 06:57:54;;;;;;;9.63;6.97;;;;;;;7.55;46.23;100611.73;1786596;77;22103;-60
2021/04/10 07:00:23;;;;;;;9.60;6.87;;;;;;;7.69;46.05;100614.13;1772208;79;21547;-61
2021/04/10 07:02:50;;;;;;;9.65;7.20;;;;;;;7.81;45.86;100609.14;1766909;79;21544;-57
2021/04/10 07:05:21;;;;;;;10.28;7.47;;;;;;;7.90;45.12;100610.75;1775847;79;21537;-58
2021/04/10 07:07:51;;;;;;;8.08;7.25;;;;;;;7.95;44.78;100607.17;1777129;78;21642;-58
2021/04/10 07:10:20;;;;;;;9.85;6.78;;;;;;;8.03;44.46;100613.59;1773347;78;22474;-58
2021/04/10 07:12:48;;;;;;;;;;;;;;;8.11;44.79;100614.77;1777857;78;21609;-58
2021/04/10 07:15:18;;;;;;;6.42;5.75;;;;;;;8.23;44.16;100612.37;1773636;78;27152;-58
2021/04/10 07:17:51;;;;;;;6.53;5.87;;;;;;;8.32;44.26;100614.38;1773016;78;21711;-61
2021/04/10 07:20:30;;;;;;;7.95;6.60;;;;;;;8.41;44.15;100611.19;1778181;78;21621;-59
2021/04/10 07:23:06;;;;;;;8.23;6.87;;;;;;;8.47;43.74;100617.19;1778902;78;22998;-63
2021/04/10 07:25:37;;;;;;;7.85;7.05;;;;;;;8.56;43.34;100609.16;1772672;78;21619;-61
2021/04/10 07:28:27;;;;;;;7.10;6.25;;;;;;;8.65;43.82;100616.45;1767146;79;21532;-63
2021/04/10 07:31:10;;;;;;;8.35;7.33;;;;;;;8.77;43.38;100611.80;1780700;79;22130;-62
2021/04/10 07:33:43;;;;;;;9.65;7.75;;;;;;;8.90;42.92;100615.05;1729925;81;21601;-60
2021/04/10 07:36:24;;;;;;;10.43;6.83;;;;;;;9.02;42.83;100614.38;1734138;79;21915;-59
2021/04/10 07:43:01;;;;;;;8.75;6.85;;;;;;;9.11;41.99;100611.11;1743462;79;21200;-61
2021/04/10 07:45:33;;;;;;;;;;;;;;;9.21;41.66;100602.62;1783537;77;21688;-61
2021/04/10 07:50:44;;;;;;;8.78;6.85;;;;;;;9.33;40.85;100595.77;1861502;75;23170;-59
2021/04/10 11:09:25;;;;;;;6.12;5.53;;;;;;;12.05;34.42;100474.44;1781084;77;23201;-63
2021/04/10 11:11:57;;;;;;;7.22;5.25;;;;;;;12.15;35.18;100478.48;1747989;79;21595;-64
2021/04/10 11:14:28;;;;;;;6.70;5.40;;;;;;;12.30;34.81;100474.43;1751131;80;21607;-61
2021/04/10 11:16:58;;;;;;;7.17;5.28;;;;;;;12.37;34.05;100483.81;1751392;80;21659;-65
2021/04/10 11:19:38;;;;;;;8.23;6.05;;;;;;;12.43;34.51;100478.33;1745125;79;21633;-62
2021/04/10 11:22:16;;;;;;;6.80;5.65;;;;;;;12.54;33.62;100476.59;1747669;79;21599;-62
2021/04/10 11:24:48;;;;;;;5.55;4.95;;;;;;;12.66;34.31;100475.28;1748302;80;21206;-63
2021/04/10 11:27:21;;;;;;;7.87;5.95;;;;;;;12.76;33.09;100466.08;1743808;80;22084;-62
2021/04/10 11:29:55;;;;;;;6.22;5.53;;;;;;;12.91;33.70;100475.19;1746565;79;21634;-63
2021/04/10 11:32:42;;;;;;;8.70;5.65;;;;;;;13.04;32.64;100467.64;1742634;80;21551;-62
2021/04/10 11:35:23;;;;;;;7.67;6.25;;;;;;;13.10;32.68;100466.08;1750313;80;21587;-63
2021/04/10 11:37:53;;;;;;;7.35;5.70;;;;;;;13.16;31.11;100465.81;1754378;79;21583;-62
2021/04/10 11:40:31;;;;;;;9.53;6.85;;;;;;;13.18;32.48;100465.30;1753325;79;21200;-65
2021/04/10 11:43:01;;;;;;;9.68;6.33;;;;;;;13.18;32.55;100450.77;1748908;79;21227;-62
2021/04/10 11:45:40;;;;;;;9.20;6.47;;;;;;;13.18;32.74;100434.08;1743680;79;21611;-62
2021/04/10 11:48:22;;;;;;;6.97;6.05;;;;;;;13.29;32.59;100448.16;1756834;79;21641;-63
2021/04/10 11:50:58;;;;;;;8.70;5.55;;;;;;;13.41;31.60;100451.20;1749468;79;21678;-63
2021/04/10 11:53:37;;;;;;;8.85;5.65;;;;;;;13.41;31.63;100449.88;1750823;79;22039;-62
2021/04/10 11:56:46;;;;;;;6.80;5.45;;;;;;;13.48;31.66;100444.33;1752933;79;21626;-62
2021/04/10 11:59:14;;;;;;;6.40;5.05;;;;;;;13.53;31.18;100431.80;1638184;85;21638;-62
2021/04/10 12:02:03;;;;;;;7.00;5.78;;;;;;;13.62;31.88;100432.25;1645098;85;22202;-62
2021/04/10 12:04:38;;;;;;;8.13;5.67;;;;;;;13.80;32.04;100423.97;1671912;84;21679;-63
2021/04/10 12:07:10;;;;;;;6.58;5.22;;;;;;;13.98;31.08;100432.05;1665015;84;22058;-60
2021/04/10 12:09:40;;;;;;;6.40;5.80;;;;;;;13.97;30.58;100427.20;1668975;84;21718;-60
2021/04/10 12:12:09;;;;;;;6.12;5.53;;;;;;;13.91;29.48;100422.66;1672375;84;21714;-60
2021/04/10 12:14:41;;;;;;;6.75;6.08;;;;;;;13.89;30.48;100420.08;1667532;83;21709;-66
2021/04/10 12:17:12;;;;;;;6.97;5.47;;;;;;;13.95;30.20;100404.41;1624842;86;21663;-67
2021/04/10 12:19:42;;;;;;;6.15;5.40;;;;;;;14.07;30.87;100405.64;1601937;87;21926;-61
2021/04/10 12:22:10;;;;;;;5.67;4.95;;;;;;;14.23;29.46;100404.02;1593610;87;21630;-61
2021/04/10 12:24:40;;;;;;;6.92;4.72;;;;;;;14.28;29.76;100407.32;1599202;87;21657;-62
2021/04/10 12:27:08;;;;;;;10.03;5.80;;;;;;;14.41;29.50;100394.39;1598606;87;21671;-61
2021/04/10 12:29:37;;;;;;;8.73;5.55;;;;;;;14.55;29.35;100400.34;1597306;87;21734;-59
2021/04/10 12:32:11;;;;;;;4.83;4.37;;;;;;;14.58;29.30;100398.92;1605814;86;22066;-59
2021/04/10 12:34:40;;;;;;;7.62;5.03;;;;;;;14.59;28.88;100395.33;1617628;87;21217;-63
2021/04/10 12:37:09;;;;;;;6.33;5.47;;;;;;;14.60;29.05;100389.97;1596332;87;21709;-60
2021/04/10 12:39:41;;;;;;;8.30;5.60;;;;;;;14.66;29.46;100391.46;1597381;87;21287;-60
2021/04/10 12:42:09;;;;;;;5.30;4.80;;;;;;;14.79;29.51;100393.91;1610648;86;21755;-59
2021/04/10 12:44:37;;;;;;;7.03;5.60;;;;;;;14.95;28.96;100394.00;1632821;86;22601;-59
2021/04/10 12:47:16;;;;;;;6.15;4.97;;;;;;;15.01;28.59;100384.90;1613752;87;21714;-60
2021/04/10 12:49:44;;;;;;;8.43;5.45;;;;;;;15.09;28.15;100381.42;1601123;87;21636;-61
2021/04/10 12:52:12;;;;;;;5.35;4.85;;;;;;;15.22;28.18;100382.12;1622227;87;21718;-61
2021/04/10 12:54:40;;;;;;;12.25;4.70;;;;;;;15.27;27.99;100378.78;1621937;86;22516;-59
2021/04/10 12:57:08;;;;;;;7.17;5.47;;;;;;;15.31;27.62;100373.70;1623888;87;21989;-59
2021/04/10 12:59:38;;;;;;;9.90;5.62;;;;;;;15.31;27.60;100360.46;1626131;87;21253;-60
2021/04/10 13:02:06;;;;;;;5.87;5.15;;;;;;;15.52;27.57;100369.97;1626077;86;21611;-61
2021/04/10 13:04:35;;;;;;;6.22;5.10;;;;;;;15.70;27.46;100367.30;1598069;87;21623;-61
2021/04/10 13:07:04;;;;;;;6.25;4.95;;;;;;;15.96;27.21;100361.48;1624414;87;21571;-61
2021/04/10 13:09:33;;;;;;;5.97;5.08;;;;;;;16.26;27.33;100352.80;1597296;87;21702;-61
2021/04/10 13:12:01;;;;;;;5.60;5.08;;;;;;;16.51;26.87;100355.42;1617797;87;21703;-61
2021/04/10 13:14:29;;;;;;;11.65;4.75;;;;;;;16.66;27.12;100360.34;1613783;88;21707;-61
2021/04/10 13:16:58;;;;;;;7.25;4.85;;;;;;;16.87;26.96;100352.97;1620796;86;21619;-62
2021/04/10 13:19:26;;;;;;;9.50;4.83;;;;;;;17.18;26.64;100352.05;1623978;87;21659;-62
2021/04/10 13:21:55;;;;;;;6.42;4.60;;;;;;;17.51;26.21;100350.48;1624531;86;22090;-61
2021/04/10 13:24:23;;;;;;;7.67;4.50;;;;;;;17.84;25.68;100350.74;1623035;87;21698;-60
2021/04/10 13:26:51;;;;;;;6.50;4.87;;;;;;;18.22;25.17;100359.46;1623805;87;27291;-61
2021/04/10 13:29:20;;;;;;;7.40;4.90;;;;;;;18.47;24.35;100356.08;1623026;86;21639;-65
2021/04/10 13:31:50;;;;;;;8.53;6.50;;;;;;;18.68;24.10;100355.64;1625405;86;21714;-61
2021/04/10 13:34:18;;;;;;;9.83;5.58;;;;;;;18.91;24.49;100352.84;1619137;87;21894;-62
2021/04/10 13:36:48;;;;;;;6.85;5.22;;;;;;;19.30;23.86;100340.44;1628042;86;21642;-62
2021/04/10 13:39:16;;;;;;;8.85;4.40;;;;;;;19.72;23.68;100350.91;1622677;87;21627;-61
2021/04/10 13:41:45;;;;;;;5.67;4.35;;;;;;;20.26;23.01;100347.16;1623706;87;21741;-62
2021/04/10 13:44:14;;;;;;;8.10;4.83;;;;;;;20.26;23.01;100347.16;1622620;87;21158;-63
2021/04/10 13:46:44;;;;;;;5.55;4.90;;;;;;;20.69;22.54;100343.55;1621390;87;21959;-62
2021/04/10 13:49:14;;;;;;;5.25;4.33;;;;;;;21.55;20.89;100344.26;1616818;87;21708;-62
2021/04/10 13:51:43;;;;;;;4.50;3.98;;;;;;;21.55;20.89;100344.26;1624639;87;21608;-62
2021/04/10 13:54:12;;;;;;;5.55;4.53;;;;;;;21.86;21.19;100331.13;1623637;87;21701;-62
2021/04/10 13:56:41;;;;;;;7.50;4.60;;;;;;;22.23;20.43;100329.05;1618797;87;21682;-62
2021/04/10 13:59:09;;;;;;;7.28;3.95;;;;;;;22.42;20.34;100325.75;1622464;87;22114;-63
2021/04/10 14:01:38;;;;;;;6.47;4.92;;;;;;;22.12;20.01;100329.91;1624895;87;21626;-62
2021/04/10 14:04:08;;;;;;;5.05;4.55;;;;;;;21.23;20.14;100322.61;1606134;87;21671;-61
2021/04/10 14:06:38;;;;;;;7.37;6.55;;;;;;;20.91;20.90;100314.75;1665664;85;21755;-61
2021/04/10 14:09:09;;;;;;;6.90;5.17;;;;;;;20.91;20.90;100314.75;1621187;87;21201;-62
2021/04/10 14:11:39;;;;;;;7.10;4.62;;;;;;;21.35;20.60;100315.84;1663350;85;21220;-62
2021/04/10 14:14:09;;;;;;;7.33;5.30;;;;;;;22.22;19.90;100311.75;1665606;85;21683;-64
2021/04/10 14:16:39;;;;;;;9.33;8.03;;;;;;;22.83;19.56;100313.91;1666886;84;21604;-64
2021/04/10 14:19:10;;;;;;;7.70;5.30;;;;;;;23.21;19.07;100308.04;1619567;87;21743;-64
2021/04/10 14:21:40;;;;;;;7.65;6.83;;;;;;;23.67;18.99;100306.73;1668366;85;21221;-63
2021/04/10 14:24:20;;;;;;;8.28;6.17;;;;;;;24.25;18.68;100303.94;1665408;84;22060;-63
2021/04/10 14:27:08;;;;;;;6.15;5.28;;;;;;;24.68;17.98;100308.14;1664843;85;21659;-62
2021/04/10 14:29:50;;;;;;;6.08;5.10;;;;;;;24.76;17.93;100307.44;1668108;85;21699;-63
2021/04/10 14:32:38;;;;;;;5.70;5.10;;;;;;;24.80;17.85;100300.77;1662479;85;21790;-63
2021/04/10 14:35:07;;;;;;;9.25;5.65;;;;;;;24.92;17.52;100301.00;1619356;87;21659;-64
2021/04/10 14:40:19;;;;;;;5.35;4.42;;;;;;;24.65;17.42;100307.06;1667277;85;21620;-66
2021/04/10 14:42:50;;;;;;;5.20;4.28;;;;;;;24.42;16.76;100299.73;1668204;85;21201;-62
2021/04/10 14:45:20;;;;;;;4.83;4.33;;;;;;;24.17;17.28;100311.84;1664978;84;21579;-62
2021/04/10 14:47:50;;;;;;;6.17;5.35;;;;;;;23.81;17.45;100311.41;1666225;85;21628;-62
2021/04/10 14:50:20;;;;;;;5.45;4.80;;;;;;;23.27;17.61;100313.37;1666297;85;21900;-61
2021/04/10 14:52:51;;;;;;;6.35;5.03;;;;;;;22.22;18.33;100313.09;1667491;85;21619;-63
2021/04/10 14:55:22;;;;;;;8.58;7.12;;;;;;;21.26;19.21;100313.03;1667655;85;21511;-62
2021/04/10 14:57:54;;;;;;;13.20;7.75;;;;;;;19.77;20.51;100314.14;1667565;85;21737;-62
2021/04/10 15:00:25;;;;;;;10.65;6.92;;;;;;;19.28;21.27;100314.37;1667718;84;21826;-64
2021/04/10 15:02:53;;;;;;;10.55;7.15;;;;;;;19.28;21.27;100314.37;1664452;85;21950;-62
2021/04/10 15:05:24;;;;;;;8.13;6.37;;;;;;;18.75;21.31;100318.81;1668045;84;21713;-61
2021/04/10 15:07:53;;;;;;;6.90;5.83;;;;;;;18.33;21.67;100321.52;1668470;85;21992;-63
2021/04/10 15:10:22;;;;;;;7.75;6.53;;;;;;;18.00;21.70;100320.52;1668547;84;21584;-61